Catàleg de serveis del Meteocat

Dades de l'estació automàtica Vilanova de Segrià

?
?
Resum diari 22:30 TU
Dades diàries de l'estació meteorològica
Temperatura mitjana 8.0 °C
Temperatura màxima 12.0 °C 13:51 TU
Temperatura mínima 4.0 °C 0:23 TU
Humitat relativa mitjana 96%
Precipitació acumulada 3.9 mm
Ratxa màxima del vent (2 m) 26.3 km/h - 312º 16:10 TU
Irradiació solar global 3.1 MJ/m2

El tram horari està expressat en Temps Universal (TU). Cal sumar una hora en horari d'hivern i dues en horari d'estiu per passar a l'hora oficial.

Vilanova de Segrià

Metadades estació meteorol´gica
Municipi Vilanova de Segrià
Comarca Segrià
Altitud 222 m
Data alta 17.09.1997
Estat actual Operativa
Dades de període
Període
TU
TM
°C
TX
°C
TN
°C
HRM
%
PPT
mm
VVM (2 m)
km/h
DVM (2 m)
graus
VVX (2 m)
km/h
RS
W/m2
00:00 - 00:30 4.9 5.7 4.0 99 0.0 0.4 315 2.9 0
00:30 - 01:00 4.7 5.9 4.2 99 0.0 0.4 298 3.2 0
01:00 - 01:30 5.2 5.7 5.0 100 0.0 0.0 321 1.8 0
01:30 - 02:00 5.1 5.2 5.0 100 0.0 0.0 319 1.4 0
02:00 - 02:30 5.1 5.8 4.9 100 0.0 0.7 309 3.2 0
02:30 - 03:00 5.9 6.0 5.8 100 0.0 0.4 78 2.5 0
03:00 - 03:30 6.1 6.2 5.9 100 0.0 0.7 299 2.9 0
03:30 - 04:00 6.1 6.6 5.7 100 0.0 0.7 290 3.2 0
04:00 - 04:30 6.3 6.5 6.0 100 0.0 1.1 329 4.7 0
04:30 - 05:00 5.8 6.3 5.6 100 0.0 1.1 310 4.3 0
05:00 - 05:30 6.3 6.4 6.2 100 0.0 0.4 319 4.3 0
05:30 - 06:00 6.6 7.0 6.3 100 0.0 1.1 310 4.0 0
06:00 - 06:30 7.0 7.2 6.9 100 0.0 0.7 305 3.2 0
06:30 - 07:00 7.3 7.5 7.1 100 0.0 0.7 303 2.5 1
07:00 - 07:30 7.7 7.8 7.5 100 0.0 0.7 327 3.2 6
07:30 - 08:00 7.9 8.1 7.8 100 0.0 0.0 37 2.9 15
08:00 - 08:30 8.2 8.4 8.1 100 0.0 0.4 314 1.8 24
08:30 - 09:00 8.9 9.3 8.5 98 0.0 2.5 137 7.9 89
09:00 - 09:30 9.5 9.6 9.3 95 0.0 3.2 100 9.7 78
09:30 - 10:00 9.2 9.3 9.1 95 0.5 2.5 123 6.1 44
10:00 - 10:30 9.4 9.5 9.2 95 0.1 4.7 91 11.9 83
10:30 - 11:00 9.6 9.9 9.3 95 0.0 4.3 82 11.5 98
11:00 - 11:30 9.8 10.1 9.6 94 0.1 3.6 81 7.9 89
11:30 - 12:00 10.4 10.6 10.1 92 0.0 5.0 95 10.8 194
12:00 - 12:30 10.4 10.6 10.3 88 0.0 5.4 98 13.3 131
12:30 - 13:00 10.4 10.6 10.3 87 0.2 4.7 93 12.6 103
13:00 - 13:30 10.5 10.8 10.3 88 0.0 6.1 78 12.6 156
13:30 - 14:00 11.5 12.0 10.8 85 0.0 7.2 83 16.6 305
14:00 - 14:30 11.4 11.5 11.2 83 0.0 7.6 77 14.4 129
14:30 - 15:00 11.1 11.2 11.0 85 0.0 5.0 76 11.5 79
15:00 - 15:30 11.2 11.3 11.1 84 0.0 4.7 79 12.2 64
15:30 - 16:00 10.9 11.1 10.7 85 0.0 2.5 80 9.0 11
16:00 - 16:30 10.1 10.7 9.6 93 2.8 8.3 312 26.3 2
16:30 - 17:00 9.4 9.6 9.2 97 0.2 2.2 342 7.6 1
17:00 - 17:30 8.4 9.1 7.8 98 0.0 0.7 117 2.9 0
17:30 - 18:00 7.1 7.8 6.4 99 0.0 0.0 128 1.8 0
18:00 - 18:30 7.0 7.5 6.6 99 0.0 1.1 235 6.1 0
18:30 - 19:00 7.4 8.0 7.0 100 0.0 2.9 226 6.1 0
19:00 - 19:30 7.0 7.9 6.3 99 0.0 0.7 326 4.7 0
19:30 - 20:00 6.8 7.0 6.5 100 0.0 1.8 315 5.4 0
20:00 - 20:30 6.9 7.0 6.7 100 0.0 0.0 95 1.8 0
20:30 - 21:00 7.3 7.5 6.9 100 0.0 1.4 310 4.3 0
21:00 - 21:30 7.4 7.5 7.2 100 0.0 1.1 299 5.0 0
21:30 - 22:00 6.9 7.2 6.3 100 0.0 1.1 300 4.3 0
22:00 - 22:30 6.8 6.9 6.4 100 0.0 0.0 225 1.8 0
22:30 - 23:00 6.9 7.2 6.9 100 0.0 1.4 301 3.6 0

Les dades en taronja només han passat un control de qualitat automàtic. Resta pendent la seva validació definitiva.